Girdler, Kentucky
Current Conditions -  °F | °C
As of 5:53 PM on Saturday 25 Oct 2014 (Local Time) from KLOZ Reporting Station
Clear Clear  
Wind Chill: 69°   Ceiling: Unl
Heat Index: 69°   Visibility: 10mi
Dew Point: 53°   Wind: 6mph
Humidity: 57%   Direction: 210°SSW
Pressure: 29.99"   Gusts: NA
Location:  36.94°N, 83.84°W
Report Text: KLOZ 252153Z AUTO 21005KT 10SM CLR 21/12 A2999 RMK AO2 SLP152 T02060117
Loading
Personal Weather Stations






























Interactive Weather Map
Tropical Storm Tracking
New forecast layout! Learn more

10-Day Weather Forecast

Advertisements
Track Severe Weather on mobile